Time;durP1;ratioP1;P1;durP2;ratioP2;P2;SDS_P1;SDS_P2;PMS_P1;PMS_P2;Temp;Humidity;BMP_temperature;BMP_pressure;BME280_temperature;BME280_humidity;BME280_pressure;Samples;Min_cycle;Max_cycle;Signal;HPM_P1;HPM_P2
2023/03/31 00:01:34;;;;;;;5.35;1.70;;;;;;;;;;5082292;28;20042;-62
2023/03/31 00:04:03;;;;;;;5.47;1.80;;;;;;;;;;5081632;28;20036;-62
2023/03/31 00:06:36;;;;;;;7.15;1.70;;;;;;;;;;5056042;28;20151;-62
2023/03/31 00:09:10;;;;;;;3.92;1.48;;;;;;;;;;5089550;28;20039;-62
2023/03/31 00:11:36;;;;;;;10.00;2.15;;;;;;;;;;5061883;28;20040;-65
2023/03/31 00:14:06;;;;;;;5.40;1.85;;;;;;;;;;5072505;28;20036;-62
2023/03/31 00:16:32;;;;;;;7.15;1.77;;;;;;;;;;5072678;28;20488;-62
2023/03/31 00:18:57;;;;;;;7.15;2.35;;;;;;;;;;5062458;28;20036;-62
2023/03/31 00:21:23;;;;;;;9.38;2.13;;;;;;;;;;5059223;28;20048;-62
2023/03/31 00:24:09;;;;;;;9.15;1.80;;;;;;;;;;5060565;28;20042;-62
2023/03/31 00:26:35;;;;;;;8.98;1.90;;;;;;;;;;5090704;28;20035;-62
2023/03/31 00:29:01;;;;;;;5.80;2.13;;;;;;;;;;5079488;28;20028;-62
2023/03/31 00:31:27;;;;;;;4.68;1.85;;;;;;;;;;5072173;28;20028;-63
2023/03/31 00:33:53;;;;;;;6.25;1.80;;;;;;;;;;5073289;28;20024;-62
2023/03/31 00:36:26;;;;;;;8.40;1.88;;;;;;;;;;5072196;28;20047;-62
2023/03/31 00:39:09;;;;;;;4.55;1.73;;;;;;;;;;5053685;28;20024;-62
2023/03/31 00:41:37;;;;;;;7.07;1.63;;;;;;;;;;5051242;28;20064;-62
2023/03/31 00:44:26;;;;;;;8.27;1.80;;;;;;;;;;5052011;28;20068;-62
2023/03/31 00:47:01;;;;;;;7.18;1.90;;;;;;;;;;5061031;28;20052;-61
2023/03/31 00:49:47;;;;;;;7.05;2.10;;;;;;;;;;5072143;28;20032;-62
2023/03/31 00:52:25;;;;;;;5.13;1.83;;;;;;;;;;5058258;28;20047;-62
2023/03/31 00:54:54;;;;;;;7.78;1.85;;;;;;;;;;5076357;28;20035;-63
2023/03/31 00:57:21;;;;;;;9.90;1.73;;;;;;;;;;5082181;28;20506;-62
2023/03/31 00:59:56;;;;;;;5.13;1.80;;;;;;;;;;5068350;28;20040;-62
2023/03/31 01:02:24;;;;;;;5.63;1.83;;;;;;;;;;5076544;28;20028;-62
2023/03/31 01:04:54;;;;;;;6.18;1.60;;;;;;;;;;5073191;28;20056;-62
2023/03/31 01:07:25;;;;;;;7.03;2.45;;;;;;;;;;5053546;28;20492;-62
2023/03/31 01:09:53;;;;;;;9.27;2.00;;;;;;;;;;5065078;28;20031;-61
2023/03/31 01:12:21;;;;;;;5.90;1.70;;;;;;;;;;5080028;28;20060;-61
2023/03/31 01:14:49;;;;;;;5.63;1.63;;;;;;;;;;5075963;28;20039;-63
2023/03/31 01:17:17;;;;;;;5.97;1.73;;;;;;;;;;5073498;28;20031;-62
2023/03/31 01:19:56;;;;;;;6.13;1.60;;;;;;;;;;5064727;28;20032;-63
2023/03/31 01:22:58;;;;;;;6.78;1.83;;;;;;;;;;5075726;28;20464;-62
2023/03/31 01:25:46;;;;;;;4.22;1.60;;;;;;;;;;5069298;28;20035;-62
2023/03/31 01:28:43;;;;;;;6.25;1.70;;;;;;;;;;5071365;28;20040;-63
2023/03/31 01:31:32;;;;;;;9.00;1.73;;;;;;;;;;5071420;28;20033;-61
2023/03/31 01:34:03;;;;;;;5.90;1.90;;;;;;;;;;5070767;28;20392;-61
2023/03/31 01:36:45;;;;;;;8.18;1.63;;;;;;;;;;5066032;28;20037;-61
2023/03/31 01:39:19;;;;;;;6.53;1.40;;;;;;;;;;5063639;28;20043;-61
2023/03/31 01:42:08;;;;;;;5.50;1.60;;;;;;;;;;5063525;28;20060;-63
2023/03/31 01:44:49;;;;;;;4.75;1.80;;;;;;;;;;5077178;28;20089;-61
2023/03/31 01:47:21;;;;;;;7.25;1.73;;;;;;;;;;5067527;28;20133;-61
2023/03/31 01:49:56;;;;;;;6.05;1.70;;;;;;;;;;5072980;28;20106;-61
2023/03/31 01:52:26;;;;;;;7.30;1.85;;;;;;;;;;5080733;28;20051;-61
2023/03/31 01:55:07;;;;;;;4.32;1.70;;;;;;;;;;5064015;28;20040;-61
2023/03/31 01:57:44;;;;;;;4.80;1.60;;;;;;;;;;5070698;28;20105;-62
2023/03/31 02:00:14;;;;;;;6.45;1.83;;;;;;;;;;5058087;28;20625;-62
2023/03/31 02:02:59;;;;;;;9.10;2.30;;;;;;;;;;5077471;28;20469;-61
2023/03/31 02:05:29;;;;;;;8.75;2.47;;;;;;;;;;5071967;28;20044;-62
2023/03/31 02:08:03;;;;;;;4.20;1.70;;;;;;;;;;5073262;28;20470;-62
2023/03/31 02:10:30;;;;;;;10.25;2.05;;;;;;;;;;5059996;28;20040;-62
2023/03/31 02:12:58;;;;;;;4.07;1.70;;;;;;;;;;5058781;28;20487;-62
2023/03/31 02:15:27;;;;;;;11.13;2.10;;;;;;;;;;5072081;28;20551;-61
2023/03/31 02:17:57;;;;;;;7.88;2.30;;;;;;;;;;5064606;28;20047;-62
2023/03/31 02:20:26;;;;;;;5.43;2.10;;;;;;;;;;5069104;28;20033;-61
2023/03/31 02:22:55;;;;;;;4.03;1.83;;;;;;;;;;5057024;28;20582;-61
2023/03/31 02:25:48;;;;;;;9.07;2.00;;;;;;;;;;5075369;28;20438;-61
2023/03/31 02:28:19;;;;;;;5.10;1.95;;;;;;;;;;5049952;28;20036;-61
2023/03/31 02:30:47;;;;;;;5.10;2.00;;;;;;;;;;5056529;28;20143;-62
2023/03/31 02:33:14;;;;;;;5.40;1.83;;;;;;;;;;5069444;28;20028;-61
2023/03/31 02:35:40;;;;;;;8.68;2.17;;;;;;;;;;5080619;28;20024;-62
2023/03/31 02:38:05;;;;;;;6.63;1.90;;;;;;;;;;5072185;28;20032;-61
2023/03/31 02:40:31;;;;;;;8.80;2.08;;;;;;;;;;5075897;28;20494;-61
2023/03/31 02:42:57;;;;;;;9.40;2.20;;;;;;;;;;5051217;28;20031;-61
2023/03/31 02:45:42;;;;;;;8.77;2.10;;;;;;;;;;5073335;28;20376;-61
2023/03/31 02:48:31;;;;;;;10.38;2.35;;;;;;;;;;5069312;28;20028;-61
2023/03/31 02:51:24;;;;;;;5.75;2.20;;;;;;;;;;5070047;28;20098;-61
2023/03/31 02:54:06;;;;;;;6.75;2.30;;;;;;;;;;5082715;28;20028;-62
2023/03/31 02:56:56;;;;;;;10.65;2.55;;;;;;;;;;5052925;28;20545;-61
2023/03/31 02:59:37;;;;;;;11.93;2.50;;;;;;;;;;5077033;28;20500;-61
2023/03/31 03:02:15;;;;;;;9.40;2.60;;;;;;;;;;5081157;28;20032;-61
2023/03/31 03:04:53;;;;;;;12.90;2.45;;;;;;;;;;5062040;28;20217;-61
2023/03/31 03:07:55;;;;;;;6.05;2.30;;;;;;;;;;5061244;28;20067;-61
2023/03/31 03:10:48;;;;;;;12.55;2.92;;;;;;;;;;5057861;28;20033;-61
2023/03/31 03:13:22;;;;;;;8.80;3.20;;;;;;;;;;5075248;28;20090;-61
2023/03/31 03:16:00;;;;;;;9.05;2.30;;;;;;;;;;5052510;28;20033;-61
2023/03/31 03:18:25;;;;;;;12.27;2.67;;;;;;;;;;5070040;28;20082;-62
2023/03/31 03:20:51;;;;;;;9.50;2.50;;;;;;;;;;5060381;28;20032;-61
2023/03/31 03:23:17;;;;;;;10.18;2.58;;;;;;;;;;5079663;28;20040;-61
2023/03/31 03:25:43;;;;;;;10.75;2.60;;;;;;;;;;5070519;28;20025;-61
2023/03/31 03:28:09;;;;;;;10.90;2.08;;;;;;;;;;5083673;28;20028;-61
2023/03/31 03:30:35;;;;;;;12.98;2.45;;;;;;;;;;5082791;28;20032;-61
2023/03/31 03:33:00;;;;;;;9.18;2.25;;;;;;;;;;5085803;28;20081;-61
2023/03/31 03:35:25;;;;;;;12.60;2.63;;;;;;;;;;5089709;28;20512;-61
2023/03/31 03:37:51;;;;;;;10.95;2.45;;;;;;;;;;5057862;28;20033;-62
2023/03/31 03:40:17;;;;;;;8.32;2.38;;;;;;;;;;5063377;28;20029;-61
2023/03/31 03:42:42;;;;;;;9.82;2.90;;;;;;;;;;5059998;28;20031;-63
2023/03/31 03:45:08;;;;;;;15.95;2.75;;;;;;;;;;5088911;28;20157;-62
2023/03/31 03:47:34;;;;;;;12.85;2.80;;;;;;;;;;5069474;28;20538;-62
2023/03/31 03:50:00;;;;;;;11.48;2.47;;;;;;;;;;5073354;28;20028;-62
2023/03/31 03:52:26;;;;;;;13.77;2.88;;;;;;;;;;5068742;28;20039;-62
2023/03/31 03:54:51;;;;;;;12.00;2.60;;;;;;;;;;5084930;28;20024;-62
2023/03/31 03:57:17;;;;;;;10.73;2.75;;;;;;;;;;5087294;28;20449;-62
2023/03/31 03:59:42;;;;;;;12.18;2.85;;;;;;;;;;5057629;28;20021;-62
2023/03/31 04:02:07;;;;;;;12.35;3.03;;;;;;;;;;5084008;28;20046;-62
2023/03/31 04:04:33;;;;;;;11.93;3.05;;;;;;;;;;5068510;28;20051;-62
2023/03/31 04:06:58;;;;;;;11.70;2.40;;;;;;;;;;5078288;28;20042;-62
2023/03/31 04:09:24;;;;;;;12.32;2.78;;;;;;;;;;5085188;28;20032;-62
2023/03/31 04:11:49;;;;;;;12.60;2.83;;;;;;;;;;5077795;28;20033;-61
2023/03/31 04:14:15;;;;;;;10.45;2.70;;;;;;;;;;5067878;28;20074;-60
2023/03/31 04:16:41;;;;;;;10.68;2.63;;;;;;;;;;5069875;28;20060;-61
2023/03/31 04:19:07;;;;;;;14.00;3.05;;;;;;;;;;5086127;28;20020;-61
2023/03/31 04:21:35;;;;;;;11.73;3.13;;;;;;;;;;5064895;28;20154;-61
2023/03/31 04:24:03;;;;;;;16.83;3.17;;;;;;;;;;5060724;28;20028;-61
2023/03/31 04:26:37;;;;;;;15.82;3.35;;;;;;;;;;5084807;28;20101;-63
2023/03/31 04:29:07;;;;;;;17.42;3.17;;;;;;;;;;5054887;28;20064;-62
2023/03/31 04:31:33;;;;;;;15.82;3.58;;;;;;;;;;5077314;28;20047;-61
2023/03/31 04:34:05;;;;;;;10.07;3.08;;;;;;;;;;5091482;28;20053;-61
2023/03/31 04:36:34;;;;;;;15.05;2.90;;;;;;;;;;5063319;28;20059;-61
2023/03/31 04:39:00;;;;;;;13.27;2.67;;;;;;;;;;5064278;28;20082;-61
2023/03/31 04:41:29;;;;;;;15.10;3.85;;;;;;;;;;5066083;28;20032;-61
2023/03/31 04:43:54;;;;;;;15.75;3.10;;;;;;;;;;5054303;28;20462;-61
2023/03/31 04:46:20;;;;;;;10.50;2.60;;;;;;;;;;5062065;28;20101;-61
2023/03/31 04:48:45;;;;;;;13.98;2.90;;;;;;;;;;5070395;28;20036;-61
2023/03/31 04:51:14;;;;;;;12.88;3.30;;;;;;;;;;5072102;28;20067;-61
2023/03/31 04:53:39;;;;;;;9.77;2.40;;;;;;;;;;5065115;28;20033;-61
2023/03/31 04:56:06;;;;;;;14.65;2.72;;;;;;;;;;5087660;28;20036;-61
2023/03/31 04:58:31;;;;;;;7.75;2.30;;;;;;;;;;5074460;28;20120;-61
2023/03/31 05:00:57;;;;;;;24.77;5.25;;;;;;;;;;5069394;28;20143;-61
2023/03/31 05:03:22;;;;;;;11.20;2.65;;;;;;;;;;5075824;28;20112;-61
2023/03/31 05:05:48;;;;;;;15.35;3.03;;;;;;;;;;5085703;28;20035;-61
2023/03/31 05:08:13;;;;;;;12.00;2.85;;;;;;;;;;5071012;28;20020;-61
2023/03/31 05:10:38;;;;;;;9.10;2.38;;;;;;;;;;5070964;28;20043;-61
2023/03/31 05:13:04;;;;;;;8.20;2.35;;;;;;;;;;5072202;28;20040;-61
2023/03/31 05:15:29;;;;;;;9.55;2.60;;;;;;;;;;5071992;28;20040;-61
2023/03/31 05:17:56;;;;;;;11.50;2.58;;;;;;;;;;5079234;28;20054;-61
2023/03/31 05:20:23;;;;;;;11.88;2.70;;;;;;;;;;5081926;28;20051;-60
2023/03/31 05:22:48;;;;;;;9.80;2.53;;;;;;;;;;5085076;28;20287;-60
2023/03/31 05:25:17;;;;;;;7.03;2.08;;;;;;;;;;5076430;28;20464;-61
2023/03/31 05:27:44;;;;;;;6.82;2.20;;;;;;;;;;5064479;28;20196;-60
2023/03/31 05:30:10;;;;;;;9.93;2.10;;;;;;;;;;5056940;28;20032;-61
2023/03/31 05:32:35;;;;;;;6.97;2.08;;;;;;;;;;5068931;28;20465;-62
2023/03/31 05:35:01;;;;;;;7.97;2.50;;;;;;;;;;5070920;28;20037;-61
2023/03/31 05:37:26;;;;;;;8.85;2.20;;;;;;;;;;5069903;28;20052;-60
2023/03/31 05:39:52;;;;;;;6.63;2.35;;;;;;;;;;5070648;28;20028;-61
2023/03/31 05:42:18;;;;;;;11.10;2.25;;;;;;;;;;5072177;28;20428;-61
2023/03/31 05:44:44;;;;;;;6.78;2.30;;;;;;;;;;5069170;28;20107;-61
2023/03/31 05:47:10;;;;;;;8.68;2.10;;;;;;;;;;5068927;28;20124;-61
2023/03/31 05:49:37;;;;;;;7.78;1.98;;;;;;;;;;5068781;28;20029;-62
2023/03/31 05:52:03;;;;;;;6.53;2.30;;;;;;;;;;5066757;28;20035;-62
2023/03/31 05:54:28;;;;;;;8.98;2.20;;;;;;;;;;5070769;28;20107;-61
2023/03/31 05:56:54;;;;;;;7.30;2.10;;;;;;;;;;5070783;28;20032;-61
2023/03/31 05:59:20;;;;;;;7.10;2.20;;;;;;;;;;5070240;28;20032;-62
2023/03/31 06:01:45;;;;;;;8.60;2.00;;;;;;;;;;5055043;28;20037;-61
2023/03/31 06:04:10;;;;;;;9.38;2.55;;;;;;;;;;5057852;28;20032;-60
2023/03/31 06:06:36;;;;;;;9.07;2.17;;;;;;;;;;5069214;28;20032;-64
2023/03/31 06:09:03;;;;;;;6.85;2.15;;;;;;;;;;5079851;28;20464;-59
2023/03/31 06:11:29;;;;;;;7.78;2.25;;;;;;;;;;5072662;28;20032;-60
2023/03/31 06:13:54;;;;;;;6.07;2.28;;;;;;;;;;5070544;28;20032;-61
2023/03/31 06:16:20;;;;;;;9.13;2.40;;;;;;;;;;5071125;28;20032;-62
